Alhaurin de la Torre, Spain
Current Conditions -  °F | °C
As of 6:30 AM on Sunday 26 Oct 2014 (Local Time) from LEMG Reporting Station
Clear Clear  
Wind Chill: 14°   Ceiling: Unl
Heat Index: 14°   Visibility: 6mi
Dew Point:   Wind: 8mph
Humidity: 67%   Direction: 290°WNW
Pressure: 30.09"   Gusts: NA
Location:  36.66°N, 4.56°W
Report Text: LEMG 260430Z 29007KT CAVOK 14/08 Q1019 NOSIG
Loading
Personal Weather Stations






























Interactive Weather Map
Tropical Storm Tracking
New forecast layout! Learn more

10-Day Weather Forecast

Advertisements
Track Severe Weather on mobile